createdAt,value
2017-08-07T00:00:56.646Z,0
2017-08-07T00:01:58.043Z,0
2017-08-07T00:02:59.443Z,0
2017-08-07T00:04:00.835Z,0
2017-08-07T00:05:02.232Z,0
2017-08-07T00:06:03.640Z,0
2017-08-07T00:07:05.050Z,0
2017-08-07T00:08:06.449Z,0
2017-08-07T00:09:07.849Z,0
2017-08-07T00:10:09.245Z,0
2017-08-07T00:11:10.643Z,0
2017-08-07T00:12:12.045Z,0
2017-08-07T00:13:13.443Z,0
2017-08-07T00:14:14.842Z,0
2017-08-07T00:15:16.245Z,0
2017-08-07T00:16:17.660Z,0
2017-08-07T00:17:19.045Z,0
2017-08-07T00:18:20.443Z,0
2017-08-07T00:19:21.838Z,0
2017-08-07T00:20:23.266Z,0
2017-08-07T00:21:24.664Z,0
2017-08-07T00:22:26.061Z,0
2017-08-07T00:23:27.454Z,0
2017-08-07T00:24:28.852Z,0
2017-08-07T00:25:30.249Z,0
2017-08-07T00:26:31.647Z,0
2017-08-07T00:27:33.045Z,0
2017-08-07T00:28:34.447Z,0
2017-08-07T00:29:35.848Z,0
2017-08-07T00:30:37.246Z,0
2017-08-07T00:31:38.641Z,0
2017-08-07T00:32:40.038Z,0
2017-08-07T00:33:41.434Z,0
2017-08-07T00:34:42.829Z,0
2017-08-07T00:35:44.244Z,0
2017-08-07T00:36:45.648Z,0
2017-08-07T00:37:47.033Z,0
2017-08-07T00:38:48.427Z,0
2017-08-07T00:39:49.825Z,0
2017-08-07T00:40:51.219Z,0
2017-08-07T00:41:52.619Z,0
2017-08-07T00:42:54.015Z,0
2017-08-07T00:43:55.415Z,0
2017-08-07T00:44:56.812Z,0
2017-08-07T00:45:58.206Z,0
2017-08-07T00:46:59.600Z,0
2017-08-07T00:48:01.011Z,0
2017-08-07T00:49:02.418Z,0
2017-08-07T00:50:03.817Z,0
2017-08-07T00:51:05.218Z,0
2017-08-07T00:52:06.615Z,0
2017-08-07T00:53:08.013Z,0
2017-08-07T00:54:09.410Z,0
2017-08-07T00:55:10.807Z,0
2017-08-07T00:56:12.212Z,0
2017-08-07T00:57:13.609Z,0
2017-08-07T00:58:15.011Z,0
2017-08-07T00:59:16.406Z,0
2017-08-07T01:00:17.801Z,0
2017-08-07T01:01:19.199Z,0
2017-08-07T01:02:20.595Z,0
2017-08-07T01:03:21.998Z,0
2017-08-07T01:04:23.397Z,0
2017-08-07T01:05:24.793Z,0
2017-08-07T01:06:26.188Z,0
2017-08-07T01:07:27.582Z,0
2017-08-07T01:08:28.980Z,0
2017-08-07T01:09:30.376Z,0
2017-08-07T01:10:31.774Z,0
2017-08-07T01:11:33.173Z,0
2017-08-07T01:12:34.575Z,0
2017-08-07T01:13:35.969Z,0
2017-08-07T01:14:37.364Z,0
2017-08-07T01:15:38.765Z,0
2017-08-07T01:16:40.169Z,0
2017-08-07T01:17:41.564Z,0
2017-08-07T01:18:42.981Z,0
2017-08-07T01:19:44.399Z,0
2017-08-07T01:20:45.785Z,0
2017-08-07T01:21:47.176Z,0
2017-08-07T01:22:48.572Z,0
2017-08-07T01:23:49.971Z,0
2017-08-07T01:24:51.369Z,0
2017-08-07T01:25:52.769Z,0
2017-08-07T01:26:54.173Z,0
2017-08-07T01:27:55.564Z,0
2017-08-07T01:28:56.959Z,0
2017-08-07T01:29:58.354Z,0
2017-08-07T01:30:59.751Z,0
2017-08-07T01:32:01.147Z,0
2017-08-07T01:33:02.547Z,0
2017-08-07T01:34:03.943Z,0
2017-08-07T01:35:05.340Z,0
2017-08-07T01:36:06.738Z,0
2017-08-07T01:37:08.133Z,0
2017-08-07T01:38:09.528Z,0
2017-08-07T01:39:10.931Z,0
2017-08-07T01:40:12.329Z,0
2017-08-07T01:41:13.728Z,0
2017-08-07T01:42:15.118Z,0
2017-08-07T01:43:16.533Z,0
2017-08-07T01:44:17.938Z,0
2017-08-07T01:45:19.336Z,0
2017-08-07T01:46:20.734Z,0
2017-08-07T01:47:22.130Z,0
2017-08-07T01:48:23.529Z,0
2017-08-07T01:49:24.926Z,0
2017-08-07T01:50:26.340Z,0
2017-08-07T01:51:27.734Z,0
2017-08-07T01:52:29.133Z,0
2017-08-07T01:53:30.529Z,0
2017-08-07T01:54:31.930Z,0
2017-08-07T01:55:33.331Z,0
2017-08-07T01:56:34.722Z,0
2017-08-07T01:57:36.118Z,0
2017-08-07T01:58:37.513Z,0
2017-08-07T01:59:38.918Z,0
2017-08-07T02:00:40.314Z,0
2017-08-07T02:01:41.714Z,0
2017-08-07T02:02:43.112Z,0
2017-08-07T02:03:44.504Z,0
2017-08-07T02:04:45.901Z,0
2017-08-07T02:05:47.301Z,0
2017-08-07T02:06:48.693Z,0
2017-08-07T02:07:50.093Z,0
2017-08-07T02:08:51.497Z,0
2017-08-07T02:09:52.896Z,0
2017-08-07T02:10:54.285Z,0
2017-08-07T02:11:55.689Z,0
2017-08-07T02:12:57.085Z,0
2017-08-07T02:13:58.481Z,0
2017-08-07T02:14:59.878Z,0
2017-08-07T02:16:01.274Z,0
2017-08-07T02:17:02.675Z,0
2017-08-07T02:18:04.070Z,0
2017-08-07T02:19:05.463Z,0
2017-08-07T02:20:06.863Z,0
2017-08-07T02:21:08.256Z,0
2017-08-07T02:22:09.657Z,0
2017-08-07T02:23:11.050Z,0
2017-08-07T02:24:12.448Z,0
2017-08-07T02:25:13.846Z,0
2017-08-07T02:26:15.241Z,0
2017-08-07T02:27:16.641Z,0
2017-08-07T02:28:18.043Z,0
2017-08-07T02:29:19.440Z,0
2017-08-07T02:30:20.838Z,0
2017-08-07T02:31:22.238Z,0
2017-08-07T02:32:23.633Z,0
2017-08-07T02:33:25.029Z,0
2017-08-07T02:34:26.422Z,0
2017-08-07T02:35:27.816Z,0
2017-08-07T02:36:29.214Z,0
2017-08-07T02:37:30.613Z,0
2017-08-07T02:38:32.009Z,0
2017-08-07T02:39:33.408Z,0
2017-08-07T02:40:34.801Z,0
2017-08-07T02:41:36.198Z,0
2017-08-07T02:42:37.592Z,0
2017-08-07T02:43:38.992Z,0
2017-08-07T02:44:40.390Z,0
2017-08-07T02:45:41.788Z,0
2017-08-07T02:46:43.181Z,0
2017-08-07T02:47:44.579Z,0
2017-08-07T02:48:45.976Z,0
2017-08-07T02:49:47.372Z,0
2017-08-07T02:50:48.773Z,0
2017-08-07T02:51:50.173Z,0
2017-08-07T02:52:51.570Z,0
2017-08-07T02:53:52.968Z,0
2017-08-07T02:54:54.360Z,0
2017-08-07T02:55:55.756Z,0
2017-08-07T02:56:57.153Z,0
2017-08-07T02:57:58.569Z,0
2017-08-07T02:58:59.966Z,0
2017-08-07T03:00:01.365Z,0
2017-08-07T03:01:02.796Z,0
2017-08-07T03:02:04.195Z,0
2017-08-07T03:03:05.587Z,0
2017-08-07T03:04:06.990Z,0
2017-08-07T03:05:08.385Z,0
2017-08-07T03:06:09.782Z,0
2017-08-07T03:07:11.181Z,0
2017-08-07T03:08:12.576Z,0
2017-08-07T03:09:13.968Z,0
2017-08-07T03:10:15.363Z,0
2017-08-07T03:11:16.766Z,0
2017-08-07T03:12:18.158Z,0
2017-08-07T03:13:19.558Z,0
2017-08-07T03:14:20.957Z,0
2017-08-07T03:15:22.350Z,0
2017-08-07T03:16:23.745Z,0
2017-08-07T03:17:25.141Z,0
2017-08-07T03:18:26.546Z,0
2017-08-07T03:19:27.935Z,0
2017-08-07T03:20:29.331Z,0
2017-08-07T03:21:30.739Z,0
2017-08-07T03:22:32.135Z,0
2017-08-07T03:23:33.536Z,0
2017-08-07T03:24:34.931Z,0
2017-08-07T03:25:36.325Z,0
2017-08-07T03:26:37.722Z,0
2017-08-07T03:27:39.124Z,0
2017-08-07T03:28:40.518Z,0
2017-08-07T03:29:41.914Z,0
2017-08-07T03:30:43.319Z,0
2017-08-07T03:31:44.706Z,0
2017-08-07T03:32:46.097Z,0
2017-08-07T03:33:47.494Z,0
2017-08-07T03:34:48.891Z,0
2017-08-07T03:35:50.291Z,0
2017-08-07T03:36:51.687Z,4
2017-08-07T03:37:53.086Z,4
2017-08-07T03:38:54.483Z,0
2017-08-07T03:39:55.877Z,0
2017-08-07T03:40:57.275Z,0
2017-08-07T03:41:58.675Z,0
2017-08-07T03:43:00.071Z,4
2017-08-07T03:44:01.470Z,4
2017-08-07T03:45:02.862Z,0
2017-08-07T03:46:04.258Z,4
2017-08-07T03:47:05.653Z,4
2017-08-07T03:48:07.052Z,4
2017-08-07T03:49:08.448Z,8
2017-08-07T03:50:09.846Z,4
2017-08-07T03:51:11.244Z,8
2017-08-07T03:52:12.657Z,8
2017-08-07T03:53:14.051Z,8
2017-08-07T03:54:15.448Z,12
2017-08-07T03:55:16.844Z,12
2017-08-07T03:56:18.245Z,16
2017-08-07T03:57:19.647Z,20
2017-08-07T03:58:21.043Z,16
2017-08-07T03:59:22.435Z,24
2017-08-07T04:00:23.835Z,24
2017-08-07T04:01:25.229Z,28
2017-08-07T04:02:26.626Z,32
2017-08-07T04:03:28.026Z,36
2017-08-07T04:04:29.425Z,40
2017-08-07T04:05:30.820Z,44
2017-08-07T04:06:32.214Z,48
2017-08-07T04:07:33.612Z,56
2017-08-07T04:08:35.010Z,56
2017-08-07T04:09:36.409Z,64
2017-08-07T04:10:37.804Z,68
2017-08-07T04:11:39.204Z,76
2017-08-07T04:12:40.599Z,80
2017-08-07T04:13:41.997Z,88
2017-08-07T04:14:43.398Z,96
2017-08-07T04:15:44.794Z,104
2017-08-07T04:16:46.194Z,112
2017-08-07T04:17:47.594Z,120
2017-08-07T04:18:48.997Z,128
2017-08-07T04:19:50.394Z,136
2017-08-07T04:20:51.794Z,144
2017-08-07T04:21:53.187Z,152
2017-08-07T04:22:54.584Z,160
2017-08-07T04:23:55.984Z,168
2017-08-07T04:24:57.391Z,176
2017-08-07T04:25:58.785Z,188
2017-08-07T04:27:00.180Z,196
2017-08-07T04:28:01.580Z,208
2017-08-07T04:29:03.010Z,216
2017-08-07T04:30:04.410Z,228
2017-08-07T04:31:05.806Z,236
2017-08-07T04:32:07.211Z,244
2017-08-07T04:33:08.605Z,256
2017-08-07T04:34:10.005Z,264
2017-08-07T04:35:11.403Z,276
2017-08-07T04:36:12.804Z,284
2017-08-07T04:37:14.741Z,292
2017-08-07T04:38:16.160Z,304
2017-08-07T04:39:17.545Z,312
2017-08-07T04:40:18.945Z,320
2017-08-07T04:41:20.342Z,332
2017-08-07T04:42:21.740Z,344
2017-08-07T04:43:23.136Z,352
2017-08-07T04:44:24.536Z,360
2017-08-07T04:45:25.941Z,372
2017-08-07T04:46:27.340Z,380
2017-08-07T04:47:28.739Z,388
2017-08-07T04:48:30.135Z,400
2017-08-07T04:49:31.533Z,420
2017-08-07T04:50:32.933Z,436
2017-08-07T04:51:34.334Z,444
2017-08-07T04:52:35.733Z,460
2017-08-07T04:53:37.139Z,468
2017-08-07T04:54:38.538Z,480
2017-08-07T04:55:39.942Z,492
2017-08-07T04:56:41.341Z,504
2017-08-07T04:57:42.737Z,512
2017-08-07T04:58:44.139Z,524
2017-08-07T04:59:45.547Z,532
2017-08-07T05:00:46.947Z,544
2017-08-07T05:01:48.357Z,552
2017-08-07T05:02:49.752Z,556
2017-08-07T05:03:51.160Z,564
2017-08-07T05:04:52.597Z,572
2017-08-07T05:05:53.999Z,588
2017-08-07T05:06:55.411Z,596
2017-08-07T05:07:56.811Z,604
2017-08-07T05:08:58.213Z,616
2017-08-07T05:09:59.613Z,624
2017-08-07T05:11:01.034Z,628
2017-08-07T05:12:02.433Z,632
2017-08-07T05:13:03.831Z,640
2017-08-07T05:14:05.301Z,644
2017-08-07T05:15:06.702Z,648
2017-08-07T05:16:08.098Z,652
2017-08-07T05:17:09.495Z,656
2017-08-07T05:18:10.893Z,660
2017-08-07T05:19:12.300Z,668
2017-08-07T05:20:13.701Z,676
2017-08-07T05:21:15.096Z,684
2017-08-07T05:22:16.563Z,692
2017-08-07T05:23:17.935Z,692
2017-08-07T05:24:19.333Z,700
2017-08-07T05:25:20.729Z,704
2017-08-07T05:26:22.131Z,712
2017-08-07T05:27:23.550Z,712
2017-08-07T05:28:24.950Z,724
2017-08-07T05:29:26.351Z,728
2017-08-07T05:30:27.752Z,732
2017-08-07T05:31:29.152Z,744
2017-08-07T05:32:30.572Z,748
2017-08-07T05:33:31.969Z,756
2017-08-07T05:34:33.371Z,760
2017-08-07T05:35:34.774Z,764
2017-08-07T05:36:36.180Z,772
2017-08-07T05:37:37.578Z,780
2017-08-07T05:38:38.976Z,788
2017-08-07T05:39:40.378Z,796
2017-08-07T05:40:41.778Z,804
2017-08-07T05:41:43.179Z,812
2017-08-07T05:42:44.590Z,816
2017-08-07T05:43:45.993Z,824
2017-08-07T05:44:47.391Z,832
2017-08-07T05:45:48.791Z,840
2017-08-07T05:46:50.277Z,840
2017-08-07T05:47:51.668Z,844
2017-08-07T05:48:53.084Z,852
2017-08-07T05:49:54.499Z,856
2017-08-07T05:50:55.900Z,864
2017-08-07T05:51:57.302Z,864
2017-08-07T05:52:58.703Z,876
2017-08-07T05:54:00.101Z,884
2017-08-07T05:55:01.501Z,892
2017-08-07T05:56:02.907Z,904
2017-08-07T05:57:04.306Z,912
2017-08-07T05:58:05.708Z,924
2017-08-07T05:59:07.112Z,932
2017-08-07T06:00:08.513Z,940
2017-08-07T06:01:09.907Z,952
2017-08-07T06:02:11.323Z,964
2017-08-07T06:03:12.718Z,960
2017-08-07T06:04:14.125Z,984
2017-08-07T06:05:15.537Z,1004
2017-08-07T06:06:16.943Z,1020
2017-08-07T06:07:18.343Z,1028
2017-08-07T06:08:19.745Z,1044
2017-08-07T06:09:21.144Z,1060
2017-08-07T06:10:22.543Z,1056
2017-08-07T06:11:23.939Z,1076
2017-08-07T06:12:25.344Z,1096
2017-08-07T06:13:26.747Z,1120
2017-08-07T06:14:28.148Z,1148
2017-08-07T06:15:29.548Z,1160
2017-08-07T06:16:30.953Z,1176
2017-08-07T06:17:32.351Z,1188
2017-08-07T06:18:33.752Z,1196
2017-08-07T06:19:35.155Z,1200
2017-08-07T06:20:36.556Z,1212
2017-08-07T06:21:38.002Z,1216
2017-08-07T06:22:39.406Z,1224
2017-08-07T06:23:40.807Z,1232
2017-08-07T06:24:42.208Z,1224
2017-08-07T06:25:43.609Z,1228
2017-08-07T06:26:45.011Z,1200
2017-08-07T06:27:46.413Z,1220
2017-08-07T06:28:47.814Z,1228
2017-08-07T06:29:49.214Z,1220
2017-08-07T06:30:50.616Z,1228
2017-08-07T06:31:52.013Z,1228
2017-08-07T06:32:53.417Z,1212
2017-08-07T06:33:54.822Z,1208
2017-08-07T06:34:56.223Z,1228
2017-08-07T06:35:57.622Z,1232
2017-08-07T06:36:59.023Z,1236
2017-08-07T06:38:00.425Z,1252
2017-08-07T06:39:01.825Z,1260
2017-08-07T06:40:03.253Z,1272
2017-08-07T06:41:04.654Z,1324
2017-08-07T06:42:06.057Z,1332
2017-08-07T06:43:07.460Z,1340
2017-08-07T06:44:08.863Z,1356
2017-08-07T06:45:10.256Z,1380
2017-08-07T06:46:11.656Z,1392
2017-08-07T06:47:13.059Z,1424
2017-08-07T06:48:14.465Z,1436
2017-08-07T06:49:15.867Z,1440
2017-08-07T06:50:17.265Z,1416
2017-08-07T06:51:18.665Z,1428
2017-08-07T06:52:20.068Z,1408
2017-08-07T06:53:21.469Z,1460
2017-08-07T06:54:22.890Z,1484
2017-08-07T06:55:24.296Z,1484
2017-08-07T06:56:25.702Z,1456
2017-08-07T06:57:27.102Z,1456
2017-08-07T06:58:28.502Z,1476
2017-08-07T06:59:29.906Z,1476
2017-08-07T07:00:31.302Z,1512
2017-08-07T07:01:32.704Z,1544
2017-08-07T07:02:34.111Z,1576
2017-08-07T07:03:35.513Z,1576
2017-08-07T07:04:36.915Z,1584
2017-08-07T07:05:38.313Z,1564
2017-08-07T07:06:39.718Z,1568
2017-08-07T07:07:41.116Z,1572
2017-08-07T07:08:42.518Z,1588
2017-08-07T07:09:43.934Z,1572
2017-08-07T07:10:45.340Z,1524
2017-08-07T07:11:46.736Z,1596
2017-08-07T07:12:48.139Z,1680
2017-08-07T07:13:49.538Z,1696
2017-08-07T07:14:50.940Z,1780
2017-08-07T07:15:52.344Z,1800
2017-08-07T07:16:53.746Z,1832
2017-08-07T07:17:55.151Z,1860
2017-08-07T07:18:56.552Z,1880
2017-08-07T07:19:57.951Z,1888
2017-08-07T07:20:59.354Z,1896
2017-08-07T07:22:00.757Z,1872
2017-08-07T07:23:02.160Z,1888
2017-08-07T07:24:03.580Z,1868
2017-08-07T07:25:04.980Z,1900
2017-08-07T07:26:06.382Z,1984
2017-08-07T07:27:07.781Z,1996
2017-08-07T07:28:09.183Z,1992
2017-08-07T07:29:10.584Z,2012
2017-08-07T07:30:11.988Z,2048
2017-08-07T07:31:13.393Z,2056
2017-08-07T07:32:14.796Z,2120
2017-08-07T07:33:16.197Z,2152
2017-08-07T07:34:17.599Z,2164
2017-08-07T07:35:19.000Z,2180
2017-08-07T07:36:20.405Z,2200
2017-08-07T07:37:21.810Z,2232
2017-08-07T07:38:23.216Z,2236
2017-08-07T07:39:24.637Z,2240
2017-08-07T07:40:26.030Z,2268
2017-08-07T07:41:27.425Z,2256
2017-08-07T07:42:28.874Z,2300
2017-08-07T07:43:30.243Z,2252
2017-08-07T07:44:31.648Z,2156
2017-08-07T07:45:33.098Z,2184
2017-08-07T07:46:34.502Z,2208
2017-08-07T07:47:35.910Z,2204
2017-08-07T07:48:37.309Z,2236
2017-08-07T07:49:38.709Z,2240
2017-08-07T07:50:40.122Z,2256
2017-08-07T07:51:41.524Z,2320
2017-08-07T07:52:42.929Z,2312
2017-08-07T07:53:44.334Z,2348
2017-08-07T07:54:45.739Z,2396
2017-08-07T07:55:47.137Z,2412
2017-08-07T07:56:48.542Z,2408
2017-08-07T07:57:49.946Z,2408
2017-08-07T07:58:51.350Z,2484
2017-08-07T07:59:53.080Z,2508
2017-08-07T08:00:54.480Z,2540
2017-08-07T08:01:55.880Z,2528
2017-08-07T08:02:57.281Z,2464
2017-08-07T08:03:58.686Z,2508
2017-08-07T08:05:00.088Z,2536
2017-08-07T08:06:01.494Z,2556
2017-08-07T08:07:02.898Z,2660
2017-08-07T08:08:04.305Z,2608
2017-08-07T08:09:05.709Z,2688
2017-08-07T08:10:07.108Z,2764
2017-08-07T08:11:08.519Z,2796
2017-08-07T08:12:09.915Z,2796
2017-08-07T08:13:11.331Z,2820
2017-08-07T08:14:12.742Z,2888
2017-08-07T08:15:14.150Z,2928
2017-08-07T08:16:15.551Z,2956
2017-08-07T08:17:16.957Z,2992
2017-08-07T08:18:18.359Z,3024
2017-08-07T08:19:19.764Z,3044
2017-08-07T08:20:21.174Z,3068
2017-08-07T08:21:22.585Z,3096
2017-08-07T08:22:23.989Z,3156
2017-08-07T08:23:25.398Z,3200
2017-08-07T08:24:26.798Z,3232
2017-08-07T08:25:28.204Z,3200
2017-08-07T08:26:29.612Z,3308
2017-08-07T08:27:31.015Z,3372
2017-08-07T08:28:32.422Z,3416
2017-08-07T08:29:33.828Z,3440
2017-08-07T08:30:35.232Z,3480
2017-08-07T08:31:36.633Z,3532
2017-08-07T08:32:38.046Z,3584
2017-08-07T08:33:39.444Z,3492
2017-08-07T08:34:40.856Z,3604
2017-08-07T08:35:42.284Z,3624
2017-08-07T08:36:43.675Z,3708
2017-08-07T08:37:45.080Z,3600
2017-08-07T08:38:46.483Z,3740
2017-08-07T08:39:47.888Z,3620
2017-08-07T08:40:49.292Z,3804
2017-08-07T08:41:50.699Z,3812
2017-08-07T08:42:52.102Z,3908
2017-08-07T08:43:53.506Z,4060
2017-08-07T08:44:54.910Z,4148
2017-08-07T08:45:56.316Z,4156
2017-08-07T08:46:57.721Z,4260
2017-08-07T08:47:59.127Z,4356
2017-08-07T08:49:00.545Z,4592
2017-08-07T08:50:01.950Z,4668
2017-08-07T08:51:03.363Z,4692
2017-08-07T08:52:04.768Z,4664
2017-08-07T08:53:06.167Z,4572
2017-08-07T08:54:07.574Z,4060
2017-08-07T08:55:08.985Z,3876
2017-08-07T08:56:10.391Z,4020
2017-08-07T08:57:11.798Z,3904
2017-08-07T08:58:13.203Z,3824
2017-08-07T08:59:14.608Z,4072
2017-08-07T09:00:16.011Z,4536
2017-08-07T09:01:17.419Z,4332
2017-08-07T09:02:18.837Z,4556
2017-08-07T09:03:20.245Z,4576
2017-08-07T09:04:21.653Z,4596
2017-08-07T09:05:23.077Z,4528
2017-08-07T09:06:24.477Z,4612
2017-08-07T09:07:25.881Z,4708
2017-08-07T09:08:27.292Z,4764
2017-08-07T09:09:28.700Z,4808
2017-08-07T09:10:30.106Z,4848
2017-08-07T09:11:31.514Z,4904
2017-08-07T09:12:32.916Z,4900
2017-08-07T09:13:34.327Z,4932
2017-08-07T09:14:35.729Z,4816
2017-08-07T09:15:37.138Z,5088
2017-08-07T09:16:38.546Z,5096
2017-08-07T09:17:39.956Z,5176
2017-08-07T09:18:41.364Z,5232
2017-08-07T09:19:42.769Z,5264
2017-08-07T09:20:44.173Z,5312
2017-08-07T09:21:45.574Z,5256
2017-08-07T09:22:46.982Z,5096
2017-08-07T09:23:48.385Z,5140
2017-08-07T09:24:49.800Z,5164
2017-08-07T09:25:51.207Z,4924
2017-08-07T09:26:52.614Z,5372
2017-08-07T09:27:54.022Z,5284
2017-08-07T09:28:55.422Z,5468
2017-08-07T09:29:56.829Z,5540
2017-08-07T09:30:58.231Z,5456
2017-08-07T09:31:59.638Z,5800
2017-08-07T09:33:01.046Z,5900
2017-08-07T09:34:02.453Z,5936
2017-08-07T09:35:03.856Z,6060
2017-08-07T09:36:05.269Z,6012
2017-08-07T09:37:06.669Z,5944
2017-08-07T09:38:08.080Z,6128
2017-08-07T09:39:09.488Z,6080
2017-08-07T09:40:10.896Z,6132
2017-08-07T09:41:12.304Z,6264
2017-08-07T09:42:13.720Z,6388
2017-08-07T09:43:15.124Z,6524
2017-08-07T09:44:16.538Z,6544
2017-08-07T09:45:17.936Z,6672
2017-08-07T09:46:19.355Z,6788
2017-08-07T09:47:20.768Z,6872
2017-08-07T09:48:22.194Z,6920
2017-08-07T09:49:23.600Z,6892
2017-08-07T09:50:25.008Z,6936
2017-08-07T09:51:26.419Z,6972
2017-08-07T09:52:27.840Z,6984
2017-08-07T09:53:29.246Z,6968
2017-08-07T09:54:30.654Z,6872
2017-08-07T09:55:32.061Z,6808
2017-08-07T09:56:33.465Z,6956
2017-08-07T09:57:34.872Z,7060
2017-08-07T09:58:36.281Z,7180
2017-08-07T09:59:37.700Z,7232
2017-08-07T10:00:39.104Z,7364
2017-08-07T10:01:40.515Z,7344
2017-08-07T10:02:41.921Z,7408
2017-08-07T10:03:43.946Z,7536
2017-08-07T10:04:45.340Z,7724
2017-08-07T10:05:46.753Z,7736
2017-08-07T10:06:48.154Z,7632
2017-08-07T10:07:49.561Z,8016
2017-08-07T10:08:50.979Z,8136
2017-08-07T10:09:52.381Z,8268
2017-08-07T10:10:53.787Z,8552
2017-08-07T10:11:55.195Z,8484
2017-08-07T10:12:56.601Z,8960
2017-08-07T10:13:58.034Z,8992
2017-08-07T10:14:59.440Z,8568
2017-08-07T10:16:00.849Z,7944
2017-08-07T10:17:02.254Z,8964
2017-08-07T10:18:03.686Z,9404
2017-08-07T10:19:05.089Z,9712
2017-08-07T10:20:06.494Z,9732
2017-08-07T10:21:07.928Z,10088
2017-08-07T10:22:09.312Z,10412
2017-08-07T10:23:10.729Z,10684
2017-08-07T10:24:12.134Z,10748
2017-08-07T10:25:13.540Z,10112
2017-08-07T10:26:14.944Z,10864
2017-08-07T10:27:16.352Z,11240
2017-08-07T10:28:17.765Z,11356
2017-08-07T10:29:19.175Z,11352
2017-08-07T10:30:20.639Z,11136
2017-08-07T10:31:22.058Z,11564
2017-08-07T10:32:23.466Z,12096
2017-08-07T10:33:24.875Z,12688
2017-08-07T10:34:26.283Z,12576
2017-08-07T10:35:27.689Z,8528
2017-08-07T10:36:29.100Z,13672
2017-08-07T10:37:30.508Z,14600
2017-08-07T10:38:31.922Z,15496
2017-08-07T10:39:33.330Z,16112
2017-08-07T10:40:34.734Z,16152
2017-08-07T10:41:36.154Z,16328
2017-08-07T10:42:37.561Z,16388
2017-08-07T10:43:38.962Z,18304
2017-08-07T10:44:40.374Z,18624
2017-08-07T10:45:41.789Z,19264
2017-08-07T10:46:43.197Z,21280
2017-08-07T10:47:44.608Z,23328
2017-08-07T10:48:46.018Z,13920
2017-08-07T10:49:47.427Z,26944
2017-08-07T10:50:48.837Z,31008
2017-08-07T10:51:50.246Z,20480
2017-08-07T10:52:51.661Z,37440
2017-08-07T10:53:53.070Z,41472
2017-08-07T10:54:54.477Z,45376
2017-08-07T10:55:55.895Z,43936
2017-08-07T10:56:57.299Z,35232
2017-08-07T10:57:58.712Z,49312
2017-08-07T10:59:00.125Z,9448
2017-08-07T11:00:01.533Z,8624
2017-08-07T11:01:02.943Z,8252
2017-08-07T11:02:04.350Z,8764
2017-08-07T11:03:05.768Z,8156
2017-08-07T11:04:07.175Z,6804
2017-08-07T11:05:08.588Z,6492
2017-08-07T11:06:10.004Z,21184
2017-08-07T11:07:11.421Z,41792
2017-08-07T11:08:12.826Z,42944
2017-08-07T11:09:14.237Z,40224
2017-08-07T11:10:15.646Z,39200
2017-08-07T11:11:17.062Z,42528
2017-08-07T11:12:18.465Z,36992
2017-08-07T11:13:19.886Z,38816
2017-08-07T11:14:21.306Z,32544
2017-08-07T11:15:22.710Z,35136
2017-08-07T11:16:24.132Z,34944
2017-08-07T11:17:25.546Z,36032
2017-08-07T11:18:26.961Z,34144
2017-08-07T11:19:28.372Z,27488
2017-08-07T11:20:29.788Z,28256
2017-08-07T11:21:31.237Z,31104
2017-08-07T11:22:32.645Z,30976
2017-08-07T11:23:34.060Z,12080
2017-08-07T11:24:35.468Z,9172
2017-08-07T11:25:36.883Z,8948
2017-08-07T11:26:38.292Z,8148
2017-08-07T11:27:39.707Z,21728
2017-08-07T11:28:41.124Z,20672
2017-08-07T11:29:42.528Z,9004
2017-08-07T11:30:43.952Z,8340
2017-08-07T11:31:45.359Z,6780
2017-08-07T11:32:46.779Z,6216
2017-08-07T11:33:48.191Z,6824
2017-08-07T11:34:49.604Z,22592
2017-08-07T11:35:51.019Z,25600
2017-08-07T11:36:52.433Z,23776
2017-08-07T11:37:53.854Z,22400
2017-08-07T11:38:55.267Z,25600
2017-08-07T11:39:56.684Z,22496
2017-08-07T11:40:58.098Z,22944
2017-08-07T11:41:59.507Z,23296
2017-08-07T11:43:00.926Z,25888
2017-08-07T11:44:02.336Z,25088
2017-08-07T11:45:03.749Z,24608
2017-08-07T11:46:05.166Z,22784
2017-08-07T11:47:06.582Z,24576
2017-08-07T11:48:07.990Z,25312
2017-08-07T11:49:09.407Z,25856
2017-08-07T11:50:10.821Z,24704
2017-08-07T11:51:12.235Z,24128
2017-08-07T11:52:13.648Z,26656
2017-08-07T11:53:15.060Z,26976
2017-08-07T11:54:16.473Z,23168
2017-08-07T11:55:17.892Z,25440
2017-08-07T11:56:19.304Z,26016
2017-08-07T11:57:20.718Z,26400
2017-08-07T11:58:22.135Z,24608
2017-08-07T11:59:23.540Z,24800
2017-08-07T12:00:24.953Z,25408
2017-08-07T12:01:26.365Z,24800
2017-08-07T12:02:27.784Z,24544
2017-08-07T12:03:29.197Z,24832
2017-08-07T12:04:30.614Z,24800
2017-08-07T12:05:32.027Z,25472
2017-08-07T12:06:33.440Z,24288
2017-08-07T12:07:34.856Z,25024
2017-08-07T12:08:36.269Z,25856
2017-08-07T12:09:37.685Z,25824
2017-08-07T12:10:39.101Z,25728
2017-08-07T12:11:40.516Z,25696
2017-08-07T12:12:41.940Z,25728
2017-08-07T12:13:43.343Z,21664
2017-08-07T12:14:44.761Z,24640
2017-08-07T12:15:46.172Z,23968
2017-08-07T12:16:47.589Z,24416
2017-08-07T12:17:49.002Z,22464
2017-08-07T12:18:50.422Z,24256
2017-08-07T12:19:51.831Z,24544
2017-08-07T12:20:53.269Z,27200
2017-08-07T12:21:54.683Z,26880
2017-08-07T12:22:56.096Z,25312
2017-08-07T12:23:57.514Z,21824
2017-08-07T12:24:58.926Z,23424
2017-08-07T12:26:00.341Z,22528
2017-08-07T12:27:01.755Z,24480
2017-08-07T12:28:03.165Z,23808
2017-08-07T12:29:04.579Z,24864
2017-08-07T12:30:05.995Z,26432
2017-08-07T12:31:07.414Z,25824
2017-08-07T12:32:08.827Z,26976
2017-08-07T12:33:10.241Z,27392
2017-08-07T12:34:11.653Z,28160
2017-08-07T12:35:13.246Z,28320
2017-08-07T12:36:14.663Z,28704
2017-08-07T12:37:16.080Z,29760
2017-08-07T12:38:17.493Z,29760
2017-08-07T12:39:18.913Z,29344
2017-08-07T12:40:20.328Z,30400
2017-08-07T12:41:21.740Z,30112
2017-08-07T12:42:23.160Z,30560
2017-08-07T12:43:24.578Z,30592
2017-08-07T12:44:25.989Z,29760
2017-08-07T12:45:27.403Z,28992
2017-08-07T12:46:28.826Z,29984
2017-08-07T12:47:30.240Z,30784
2017-08-07T12:48:31.663Z,30464
2017-08-07T12:49:33.069Z,31520
2017-08-07T12:50:34.503Z,31648
2017-08-07T12:51:35.914Z,30912
2017-08-07T12:52:37.332Z,28768
2017-08-07T12:53:38.756Z,28384
2017-08-07T12:54:40.169Z,27616
2017-08-07T12:55:41.584Z,29120
2017-08-07T12:56:42.997Z,30368
2017-08-07T12:57:44.419Z,31552
2017-08-07T12:58:45.836Z,28640
2017-08-07T12:59:47.255Z,30496
2017-08-07T13:00:48.723Z,30848
2017-08-07T13:01:50.139Z,27296
2017-08-07T13:02:51.553Z,26848
2017-08-07T13:03:52.972Z,27616
2017-08-07T13:04:54.385Z,31040
2017-08-07T13:05:55.799Z,32320
2017-08-07T13:06:57.214Z,31488
2017-08-07T13:07:58.629Z,31616
2017-08-07T13:09:00.051Z,31520
2017-08-07T13:10:01.460Z,30528
2017-08-07T13:11:02.877Z,32352
2017-08-07T13:12:04.300Z,32320
2017-08-07T13:13:05.716Z,32096
2017-08-07T13:14:07.132Z,31008
2017-08-07T13:15:08.549Z,30656
2017-08-07T13:16:09.967Z,28832
2017-08-07T13:17:11.379Z,32096
2017-08-07T13:18:12.826Z,29952
2017-08-07T13:19:14.241Z,29440
2017-08-07T13:20:15.657Z,31936
2017-08-07T13:21:17.072Z,32032
2017-08-07T13:22:18.489Z,31168
2017-08-07T13:23:19.907Z,31296
2017-08-07T13:24:21.321Z,30912
2017-08-07T13:25:22.735Z,30592
2017-08-07T13:26:24.153Z,23040
2017-08-07T13:27:25.569Z,27808
2017-08-07T13:28:26.983Z,22080
2017-08-07T13:29:28.401Z,26144
2017-08-07T13:30:29.815Z,26208
2017-08-07T13:31:31.229Z,27520
2017-08-07T13:32:32.643Z,30112
2017-08-07T13:33:34.058Z,30560
2017-08-07T13:34:35.480Z,30528
2017-08-07T13:35:36.896Z,30272
2017-08-07T13:36:38.311Z,29984
2017-08-07T13:37:39.731Z,29088
2017-08-07T13:38:41.140Z,29408
2017-08-07T13:39:42.559Z,29344
2017-08-07T13:40:43.973Z,29088
2017-08-07T13:41:45.391Z,29344
2017-08-07T13:42:46.804Z,29536
2017-08-07T13:43:48.226Z,29312
2017-08-07T13:44:49.642Z,28992
2017-08-07T13:45:51.056Z,28448
2017-08-07T13:46:52.471Z,27872
2017-08-07T13:47:53.891Z,27872
2017-08-07T13:48:55.311Z,27712
2017-08-07T13:49:56.746Z,27264
2017-08-07T13:50:58.164Z,26688
2017-08-07T13:51:59.578Z,26624
2017-08-07T13:53:00.992Z,26592
2017-08-07T13:54:02.410Z,27136
2017-08-07T13:55:03.827Z,26592
2017-08-07T13:56:05.241Z,26080
2017-08-07T13:57:06.653Z,26624
2017-08-07T13:58:08.070Z,26272
2017-08-07T13:59:09.512Z,25824